sensor_id;sensor_type;location;lat;lon;timestamp;P1;durP1;ratioP1;P2;durP2;ratioP2
13051;SDS011;6592;47.484;9.726;2024-02-26T00:00:36;2.67;;;0.75;;
13051;SDS011;6592;47.484;9.726;2024-02-26T00:03:05;3.47;;;0.90;;
13051;SDS011;6592;47.484;9.726;2024-02-26T00:05:35;1.70;;;0.80;;
13051;SDS011;6592;47.484;9.726;2024-02-26T00:08:05;1.48;;;0.60;;
13051;SDS011;6592;47.484;9.726;2024-02-26T00:10:34;2.50;;;0.80;;
13051;SDS011;6592;47.484;9.726;2024-02-26T00:13:02;2.33;;;0.93;;
13051;SDS011;6592;47.484;9.726;2024-02-26T00:15:31;2.33;;;0.88;;
13051;SDS011;6592;47.484;9.726;2024-02-26T00:18:01;4.05;;;0.93;;
13051;SDS011;6592;47.484;9.726;2024-02-26T00:20:30;1.90;;;0.73;;
13051;SDS011;6592;47.484;9.726;2024-02-26T00:22:59;4.10;;;0.60;;
13051;SDS011;6592;47.484;9.726;2024-02-26T00:25:28;2.58;;;0.70;;
13051;SDS011;6592;47.484;9.726;2024-02-26T00:27:56;2.22;;;0.80;;
13051;SDS011;6592;47.484;9.726;2024-02-26T00:30:25;2.38;;;0.80;;
13051;SDS011;6592;47.484;9.726;2024-02-26T00:32:53;1.83;;;0.70;;
13051;SDS011;6592;47.484;9.726;2024-02-26T00:35:21;3.72;;;0.70;;
13051;SDS011;6592;47.484;9.726;2024-02-26T00:37:49;2.10;;;0.80;;
13051;SDS011;6592;47.484;9.726;2024-02-26T00:40:19;4.53;;;0.82;;
13051;SDS011;6592;47.484;9.726;2024-02-26T00:42:47;2.33;;;0.73;;
13051;SDS011;6592;47.484;9.726;2024-02-26T00:45:16;2.58;;;0.93;;
13051;SDS011;6592;47.484;9.726;2024-02-26T00:47:44;1.73;;;0.70;;
13051;SDS011;6592;47.484;9.726;2024-02-26T00:50:14;2.42;;;0.70;;
13051;SDS011;6592;47.484;9.726;2024-02-26T00:52:43;2.53;;;0.85;;
13051;SDS011;6592;47.484;9.726;2024-02-26T00:55:11;2.88;;;1.10;;
13051;SDS011;6592;47.484;9.726;2024-02-26T00:57:40;2.00;;;0.52;;
13051;SDS011;6592;47.484;9.726;2024-02-26T01:00:09;1.55;;;0.68;;
13051;SDS011;6592;47.484;9.726;2024-02-26T01:02:38;1.63;;;0.50;;
13051;SDS011;6592;47.484;9.726;2024-02-26T01:05:08;1.98;;;0.73;;
13051;SDS011;6592;47.484;9.726;2024-02-26T01:07:36;1.50;;;0.68;;
13051;SDS011;6592;47.484;9.726;2024-02-26T01:10:06;3.45;;;0.70;;
13051;SDS011;6592;47.484;9.726;2024-02-26T01:12:35;4.72;;;0.60;;
13051;SDS011;6592;47.484;9.726;2024-02-26T01:15:05;1.73;;;0.60;;
13051;SDS011;6592;47.484;9.726;2024-02-26T01:20:03;2.65;;;0.70;;
13051;SDS011;6592;47.484;9.726;2024-02-26T01:22:32;1.55;;;0.60;;
13051;SDS011;6592;47.484;9.726;2024-02-26T01:25:01;2.13;;;0.70;;
13051;SDS011;6592;47.484;9.726;2024-02-26T01:27:29;2.80;;;0.70;;
13051;SDS011;6592;47.484;9.726;2024-02-26T01:29:57;2.17;;;0.70;;
13051;SDS011;6592;47.484;9.726;2024-02-26T01:32:27;1.33;;;0.50;;
13051;SDS011;6592;47.484;9.726;2024-02-26T01:34:55;1.40;;;0.52;;
13051;SDS011;6592;47.484;9.726;2024-02-26T01:37:23;1.55;;;0.60;;
13051;SDS011;6592;47.484;9.726;2024-02-26T01:39:52;1.90;;;0.80;;
13051;SDS011;6592;47.484;9.726;2024-02-26T01:42:20;1.63;;;0.65;;
13051;SDS011;6592;47.484;9.726;2024-02-26T01:44:49;1.45;;;0.60;;
13051;SDS011;6592;47.484;9.726;2024-02-26T01:47:17;1.52;;;0.63;;
13051;SDS011;6592;47.484;9.726;2024-02-26T01:49:47;1.23;;;0.40;;
13051;SDS011;6592;47.484;9.726;2024-02-26T01:52:15;1.25;;;0.50;;
13051;SDS011;6592;47.484;9.726;2024-02-26T01:54:44;2.00;;;0.70;;
13051;SDS011;6592;47.484;9.726;2024-02-26T01:57:13;1.88;;;0.63;;
13051;SDS011;6592;47.484;9.726;2024-02-26T01:59:42;1.55;;;0.50;;
13051;SDS011;6592;47.484;9.726;2024-02-26T02:02:11;1.58;;;0.70;;
13051;SDS011;6592;47.484;9.726;2024-02-26T02:04:40;1.42;;;0.57;;
13051;SDS011;6592;47.484;9.726;2024-02-26T02:07:10;2.33;;;0.70;;
13051;SDS011;6592;47.484;9.726;2024-02-26T02:09:40;1.33;;;0.60;;
13051;SDS011;6592;47.484;9.726;2024-02-26T02:12:08;2.88;;;0.60;;
13051;SDS011;6592;47.484;9.726;2024-02-26T02:14:38;3.08;;;0.65;;
13051;SDS011;6592;47.484;9.726;2024-02-26T02:17:06;1.92;;;0.60;;
13051;SDS011;6592;47.484;9.726;2024-02-26T02:19:35;0.77;;;0.40;;
13051;SDS011;6592;47.484;9.726;2024-02-26T02:22:04;1.98;;;0.70;;
13051;SDS011;6592;47.484;9.726;2024-02-26T02:24:33;2.42;;;0.70;;
13051;SDS011;6592;47.484;9.726;2024-02-26T02:27:01;1.58;;;0.52;;
13051;SDS011;6592;47.484;9.726;2024-02-26T02:29:29;1.92;;;0.50;;
13051;SDS011;6592;47.484;9.726;2024-02-26T02:31:58;1.35;;;0.50;;
13051;SDS011;6592;47.484;9.726;2024-02-26T02:34:28;1.52;;;0.63;;
13051;SDS011;6592;47.484;9.726;2024-02-26T02:36:57;0.88;;;0.30;;
13051;SDS011;6592;47.484;9.726;2024-02-26T02:39:26;1.95;;;0.40;;
13051;SDS011;6592;47.484;9.726;2024-02-26T02:41:55;0.88;;;0.40;;
13051;SDS011;6592;47.484;9.726;2024-02-26T02:44:23;1.90;;;0.50;;
13051;SDS011;6592;47.484;9.726;2024-02-26T02:46:51;1.70;;;0.50;;
13051;SDS011;6592;47.484;9.726;2024-02-26T02:49:19;1.35;;;0.40;;
13051;SDS011;6592;47.484;9.726;2024-02-26T02:51:50;1.27;;;0.50;;
13051;SDS011;6592;47.484;9.726;2024-02-26T02:54:19;1.67;;;0.60;;
13051;SDS011;6592;47.484;9.726;2024-02-26T02:56:49;1.48;;;0.55;;
13051;SDS011;6592;47.484;9.726;2024-02-26T02:59:18;1.77;;;0.60;;
13051;SDS011;6592;47.484;9.726;2024-02-26T03:01:46;1.27;;;0.52;;
13051;SDS011;6592;47.484;9.726;2024-02-26T03:04:14;1.45;;;0.50;;
13051;SDS011;6592;47.484;9.726;2024-02-26T03:06:42;2.63;;;0.60;;
13051;SDS011;6592;47.484;9.726;2024-02-26T03:09:11;3.15;;;0.50;;
13051;SDS011;6592;47.484;9.726;2024-02-26T03:11:39;1.77;;;0.60;;
13051;SDS011;6592;47.484;9.726;2024-02-26T03:14:09;1.50;;;0.60;;
13051;SDS011;6592;47.484;9.726;2024-02-26T03:16:37;1.48;;;0.60;;
13051;SDS011;6592;47.484;9.726;2024-02-26T03:19:06;1.52;;;0.60;;
13051;SDS011;6592;47.484;9.726;2024-02-26T03:21:34;1.55;;;0.47;;
13051;SDS011;6592;47.484;9.726;2024-02-26T03:24:02;1.30;;;0.43;;
13051;SDS011;6592;47.484;9.726;2024-02-26T03:26:31;1.73;;;0.60;;
13051;SDS011;6592;47.484;9.726;2024-02-26T03:28:59;1.88;;;0.50;;
13051;SDS011;6592;47.484;9.726;2024-02-26T03:31:30;1.60;;;0.55;;
13051;SDS011;6592;47.484;9.726;2024-02-26T03:33:59;1.45;;;0.60;;
13051;SDS011;6592;47.484;9.726;2024-02-26T03:36:27;1.77;;;0.73;;
13051;SDS011;6592;47.484;9.726;2024-02-26T03:38:55;1.90;;;0.80;;
13051;SDS011;6592;47.484;9.726;2024-02-26T03:41:25;2.13;;;0.93;;
13051;SDS011;6592;47.484;9.726;2024-02-26T03:43:53;2.70;;;1.30;;
13051;SDS011;6592;47.484;9.726;2024-02-26T03:46:22;4.10;;;1.73;;
13051;SDS011;6592;47.484;9.726;2024-02-26T03:48:52;3.30;;;1.60;;
13051;SDS011;6592;47.484;9.726;2024-02-26T03:51:20;3.92;;;1.52;;
13051;SDS011;6592;47.484;9.726;2024-02-26T03:53:49;4.05;;;1.60;;
13051;SDS011;6592;47.484;9.726;2024-02-26T03:56:17;3.50;;;1.58;;
13051;SDS011;6592;47.484;9.726;2024-02-26T03:58:47;2.88;;;1.40;;
13051;SDS011;6592;47.484;9.726;2024-02-26T04:01:15;3.05;;;1.33;;
13051;SDS011;6592;47.484;9.726;2024-02-26T04:03:43;2.50;;;1.40;;
13051;SDS011;6592;47.484;9.726;2024-02-26T04:06:13;2.63;;;1.48;;
13051;SDS011;6592;47.484;9.726;2024-02-26T04:08:41;3.22;;;1.23;;
13051;SDS011;6592;47.484;9.726;2024-02-26T04:11:09;2.33;;;1.02;;
13051;SDS011;6592;47.484;9.726;2024-02-26T04:13:38;2.58;;;1.00;;
13051;SDS011;6592;47.484;9.726;2024-02-26T04:16:06;2.97;;;1.23;;
13051;SDS011;6592;47.484;9.726;2024-02-26T04:18:34;3.28;;;1.20;;
13051;SDS011;6592;47.484;9.726;2024-02-26T04:21:03;3.17;;;1.10;;
13051;SDS011;6592;47.484;9.726;2024-02-26T04:23:35;3.03;;;1.20;;
13051;SDS011;6592;47.484;9.726;2024-02-26T04:26:04;3.33;;;1.00;;
13051;SDS011;6592;47.484;9.726;2024-02-26T04:28:32;2.20;;;0.90;;
13051;SDS011;6592;47.484;9.726;2024-02-26T04:31:01;1.88;;;0.80;;
13051;SDS011;6592;47.484;9.726;2024-02-26T04:33:29;2.53;;;1.00;;
13051;SDS011;6592;47.484;9.726;2024-02-26T04:35:57;1.98;;;0.82;;
13051;SDS011;6592;47.484;9.726;2024-02-26T04:38:26;2.83;;;0.60;;
13051;SDS011;6592;47.484;9.726;2024-02-26T04:40:55;1.75;;;0.57;;
13051;SDS011;6592;47.484;9.726;2024-02-26T04:43:23;1.40;;;0.60;;
13051;SDS011;6592;47.484;9.726;2024-02-26T04:45:52;2.00;;;0.65;;
13051;SDS011;6592;47.484;9.726;2024-02-26T04:48:21;2.50;;;0.47;;
13051;SDS011;6592;47.484;9.726;2024-02-26T04:50:49;0.85;;;0.43;;
13051;SDS011;6592;47.484;9.726;2024-02-26T04:53:18;1.95;;;0.60;;
13051;SDS011;6592;47.484;9.726;2024-02-26T04:55:46;0.90;;;0.45;;
13051;SDS011;6592;47.484;9.726;2024-02-26T04:58:16;1.52;;;0.57;;
13051;SDS011;6592;47.484;9.726;2024-02-26T05:00:44;1.95;;;0.60;;
13051;SDS011;6592;47.484;9.726;2024-02-26T05:03:12;1.92;;;0.60;;
13051;SDS011;6592;47.484;9.726;2024-02-26T05:05:42;1.30;;;0.50;;
13051;SDS011;6592;47.484;9.726;2024-02-26T05:08:11;1.38;;;0.52;;
13051;SDS011;6592;47.484;9.726;2024-02-26T05:10:39;3.75;;;0.70;;
13051;SDS011;6592;47.484;9.726;2024-02-26T05:13:07;1.75;;;0.60;;
13051;SDS011;6592;47.484;9.726;2024-02-26T05:15:37;2.10;;;0.65;;
13051;SDS011;6592;47.484;9.726;2024-02-26T05:18:06;1.60;;;0.50;;
13051;SDS011;6592;47.484;9.726;2024-02-26T05:20:35;2.45;;;0.70;;
13051;SDS011;6592;47.484;9.726;2024-02-26T05:23:04;1.33;;;0.50;;
13051;SDS011;6592;47.484;9.726;2024-02-26T05:25:32;2.42;;;0.52;;
13051;SDS011;6592;47.484;9.726;2024-02-26T05:28:01;0.95;;;0.30;;
13051;SDS011;6592;47.484;9.726;2024-02-26T05:30:29;1.58;;;0.47;;
13051;SDS011;6592;47.484;9.726;2024-02-26T05:32:59;0.93;;;0.30;;
13051;SDS011;6592;47.484;9.726;2024-02-26T05:35:27;1.15;;;0.43;;
13051;SDS011;6592;47.484;9.726;2024-02-26T05:37:55;2.63;;;0.50;;
13051;SDS011;6592;47.484;9.726;2024-02-26T05:40:24;1.30;;;0.50;;
13051;SDS011;6592;47.484;9.726;2024-02-26T05:42:52;1.45;;;0.60;;
13051;SDS011;6592;47.484;9.726;2024-02-26T05:45:20;1.55;;;0.60;;
13051;SDS011;6592;47.484;9.726;2024-02-26T05:47:49;2.45;;;0.93;;
13051;SDS011;6592;47.484;9.726;2024-02-26T05:50:18;3.58;;;1.23;;
13051;SDS011;6592;47.484;9.726;2024-02-26T05:52:46;2.70;;;1.25;;
13051;SDS011;6592;47.484;9.726;2024-02-26T05:55:15;6.28;;;1.52;;
13051;SDS011;6592;47.484;9.726;2024-02-26T05:57:43;3.05;;;1.67;;
13051;SDS011;6592;47.484;9.726;2024-02-26T06:00:12;2.92;;;1.50;;
13051;SDS011;6592;47.484;9.726;2024-02-26T06:02:41;3.90;;;1.77;;
13051;SDS011;6592;47.484;9.726;2024-02-26T06:05:09;3.72;;;1.50;;
13051;SDS011;6592;47.484;9.726;2024-02-26T06:07:39;3.28;;;1.60;;
13051;SDS011;6592;47.484;9.726;2024-02-26T06:10:07;4.70;;;1.50;;
13051;SDS011;6592;47.484;9.726;2024-02-26T06:12:36;3.83;;;1.45;;
13051;SDS011;6592;47.484;9.726;2024-02-26T06:15:05;2.97;;;1.45;;
13051;SDS011;6592;47.484;9.726;2024-02-26T06:17:34;3.50;;;1.30;;
13051;SDS011;6592;47.484;9.726;2024-02-26T06:20:02;2.78;;;1.23;;
13051;SDS011;6592;47.484;9.726;2024-02-26T06:22:33;4.65;;;1.25;;
13051;SDS011;6592;47.484;9.726;2024-02-26T06:25:02;3.08;;;1.48;;
13051;SDS011;6592;47.484;9.726;2024-02-26T06:27:31;3.67;;;1.70;;
13051;SDS011;6592;47.484;9.726;2024-02-26T06:29:59;4.97;;;1.90;;
13051;SDS011;6592;47.484;9.726;2024-02-26T06:32:28;4.03;;;1.70;;
13051;SDS011;6592;47.484;9.726;2024-02-26T06:34:56;4.15;;;1.38;;
13051;SDS011;6592;47.484;9.726;2024-02-26T06:37:24;3.53;;;1.33;;
13051;SDS011;6592;47.484;9.726;2024-02-26T06:39:53;3.88;;;1.42;;
13051;SDS011;6592;47.484;9.726;2024-02-26T06:42:22;3.63;;;1.52;;
13051;SDS011;6592;47.484;9.726;2024-02-26T06:44:50;2.80;;;1.52;;
13051;SDS011;6592;47.484;9.726;2024-02-26T06:47:19;3.42;;;1.45;;
13051;SDS011;6592;47.484;9.726;2024-02-26T06:49:47;6.75;;;1.23;;
13051;SDS011;6592;47.484;9.726;2024-02-26T06:52:15;4.85;;;1.67;;
13051;SDS011;6592;47.484;9.726;2024-02-26T06:54:43;2.60;;;1.30;;
13051;SDS011;6592;47.484;9.726;2024-02-26T06:57:13;3.40;;;1.33;;
13051;SDS011;6592;47.484;9.726;2024-02-26T06:59:43;2.88;;;1.40;;
13051;SDS011;6592;47.484;9.726;2024-02-26T07:02:13;2.88;;;1.20;;
13051;SDS011;6592;47.484;9.726;2024-02-26T07:04:43;3.92;;;1.30;;
13051;SDS011;6592;47.484;9.726;2024-02-26T07:07:11;4.65;;;1.48;;
13051;SDS011;6592;47.484;9.726;2024-02-26T07:09:41;3.20;;;1.27;;
13051;SDS011;6592;47.484;9.726;2024-02-26T07:12:10;5.43;;;2.13;;
13051;SDS011;6592;47.484;9.726;2024-02-26T07:14:39;3.42;;;1.70;;
13051;SDS011;6592;47.484;9.726;2024-02-26T07:17:08;4.78;;;1.67;;
13051;SDS011;6592;47.484;9.726;2024-02-26T07:19:37;5.28;;;1.60;;
13051;SDS011;6592;47.484;9.726;2024-02-26T07:22:05;9.73;;;3.90;;
13051;SDS011;6592;47.484;9.726;2024-02-26T07:24:34;8.00;;;2.97;;
13051;SDS011;6592;47.484;9.726;2024-02-26T07:27:02;5.10;;;1.92;;
13051;SDS011;6592;47.484;9.726;2024-02-26T07:29:31;5.00;;;1.88;;
13051;SDS011;6592;47.484;9.726;2024-02-26T07:31:59;5.30;;;1.67;;
13051;SDS011;6592;47.484;9.726;2024-02-26T07:34:29;4.72;;;1.75;;
13051;SDS011;6592;47.484;9.726;2024-02-26T07:36:57;3.22;;;1.63;;
13051;SDS011;6592;47.484;9.726;2024-02-26T07:39:26;6.32;;;1.77;;
13051;SDS011;6592;47.484;9.726;2024-02-26T07:41:54;3.95;;;1.83;;
13051;SDS011;6592;47.484;9.726;2024-02-26T07:44:22;4.18;;;1.70;;
13051;SDS011;6592;47.484;9.726;2024-02-26T07:46:52;22.70;;;7.93;;
13051;SDS011;6592;47.484;9.726;2024-02-26T07:49:20;6.40;;;3.05;;
13051;SDS011;6592;47.484;9.726;2024-02-26T07:51:50;4.57;;;2.47;;
13051;SDS011;6592;47.484;9.726;2024-02-26T07:54:18;3.85;;;1.55;;
13051;SDS011;6592;47.484;9.726;2024-02-26T07:56:46;8.77;;;2.10;;
13051;SDS011;6592;47.484;9.726;2024-02-26T07:59:14;5.90;;;2.58;;
13051;SDS011;6592;47.484;9.726;2024-02-26T08:01:42;2.80;;;1.33;;
13051;SDS011;6592;47.484;9.726;2024-02-26T08:04:17;3.45;;;1.33;;
13051;SDS011;6592;47.484;9.726;2024-02-26T08:06:46;7.35;;;1.50;;
13051;SDS011;6592;47.484;9.726;2024-02-26T08:09:15;4.50;;;1.58;;
13051;SDS011;6592;47.484;9.726;2024-02-26T08:11:44;4.45;;;1.70;;
13051;SDS011;6592;47.484;9.726;2024-02-26T08:14:12;9.50;;;6.13;;
13051;SDS011;6592;47.484;9.726;2024-02-26T08:16:40;2.55;;;1.20;;
13051;SDS011;6592;47.484;9.726;2024-02-26T08:19:08;3.08;;;1.60;;
13051;SDS011;6592;47.484;9.726;2024-02-26T08:21:40;2.70;;;1.20;;
13051;SDS011;6592;47.484;9.726;2024-02-26T08:24:08;2.42;;;1.10;;
13051;SDS011;6592;47.484;9.726;2024-02-26T08:26:38;3.90;;;1.20;;
13051;SDS011;6592;47.484;9.726;2024-02-26T08:29:06;2.88;;;1.10;;
13051;SDS011;6592;47.484;9.726;2024-02-26T08:31:34;3.13;;;1.55;;
13051;SDS011;6592;47.484;9.726;2024-02-26T08:34:04;2.20;;;1.00;;
13051;SDS011;6592;47.484;9.726;2024-02-26T08:36:33;2.70;;;1.00;;
13051;SDS011;6592;47.484;9.726;2024-02-26T08:39:02;4.00;;;1.00;;
13051;SDS011;6592;47.484;9.726;2024-02-26T08:41:30;4.15;;;1.20;;
13051;SDS011;6592;47.484;9.726;2024-02-26T08:44:00;3.60;;;1.60;;
13051;SDS011;6592;47.484;9.726;2024-02-26T08:46:28;4.35;;;1.52;;
13051;SDS011;6592;47.484;9.726;2024-02-26T08:48:56;4.15;;;1.70;;
13051;SDS011;6592;47.484;9.726;2024-02-26T08:51:25;5.00;;;2.13;;
13051;SDS011;6592;47.484;9.726;2024-02-26T08:53:53;6.45;;;2.38;;
13051;SDS011;6592;47.484;9.726;2024-02-26T08:56:21;5.32;;;1.70;;
13051;SDS011;6592;47.484;9.726;2024-02-26T08:58:50;6.28;;;2.03;;
13051;SDS011;6592;47.484;9.726;2024-02-26T09:01:21;5.40;;;1.83;;
13051;SDS011;6592;47.484;9.726;2024-02-26T09:03:50;3.67;;;1.50;;
13051;SDS011;6592;47.484;9.726;2024-02-26T09:06:18;4.18;;;1.40;;
13051;SDS011;6592;47.484;9.726;2024-02-26T09:08:46;8.52;;;3.35;;
13051;SDS011;6592;47.484;9.726;2024-02-26T09:11:15;6.20;;;2.50;;
13051;SDS011;6592;47.484;9.726;2024-02-26T09:13:43;3.88;;;1.58;;
13051;SDS011;6592;47.484;9.726;2024-02-26T09:16:11;5.15;;;2.10;;
13051;SDS011;6592;47.484;9.726;2024-02-26T09:18:41;6.85;;;1.58;;
13051;SDS011;6592;47.484;9.726;2024-02-26T09:21:10;3.33;;;1.30;;
13051;SDS011;6592;47.484;9.726;2024-02-26T09:23:38;6.70;;;1.50;;
13051;SDS011;6592;47.484;9.726;2024-02-26T09:26:06;3.47;;;1.20;;
13051;SDS011;6592;47.484;9.726;2024-02-26T09:28:35;2.67;;;1.13;;
13051;SDS011;6592;47.484;9.726;2024-02-26T09:31:04;2.35;;;1.02;;
13051;SDS011;6592;47.484;9.726;2024-02-26T09:33:32;2.50;;;1.05;;
13051;SDS011;6592;47.484;9.726;2024-02-26T09:36:03;2.60;;;1.02;;
13051;SDS011;6592;47.484;9.726;2024-02-26T09:38:32;2.15;;;0.80;;
13051;SDS011;6592;47.484;9.726;2024-02-26T09:41:21;2.10;;;0.80;;
13051;SDS011;6592;47.484;9.726;2024-02-26T09:43:49;2.63;;;1.10;;
13051;SDS011;6592;47.484;9.726;2024-02-26T09:46:23;2.85;;;1.15;;
13051;SDS011;6592;47.484;9.726;2024-02-26T09:48:52;4.13;;;1.00;;
13051;SDS011;6592;47.484;9.726;2024-02-26T09:51:23;1.98;;;0.90;;
13051;SDS011;6592;47.484;9.726;2024-02-26T09:53:53;3.05;;;0.98;;
13051;SDS011;6592;47.484;9.726;2024-02-26T09:56:22;3.15;;;1.02;;
13051;SDS011;6592;47.484;9.726;2024-02-26T09:58:50;4.25;;;1.15;;
13051;SDS011;6592;47.484;9.726;2024-02-26T10:01:21;2.05;;;1.08;;
13051;SDS011;6592;47.484;9.726;2024-02-26T10:03:52;2.25;;;1.00;;
13051;SDS011;6592;47.484;9.726;2024-02-26T10:06:26;3.58;;;1.13;;
13051;SDS011;6592;47.484;9.726;2024-02-26T10:08:55;3.35;;;1.25;;
13051;SDS011;6592;47.484;9.726;2024-02-26T10:11:25;3.80;;;1.13;;
13051;SDS011;6592;47.484;9.726;2024-02-26T10:13:58;2.47;;;0.70;;
13051;SDS011;6592;47.484;9.726;2024-02-26T10:16:26;2.53;;;0.75;;
13051;SDS011;6592;47.484;9.726;2024-02-26T10:18:55;1.60;;;0.65;;
13051;SDS011;6592;47.484;9.726;2024-02-26T10:21:27;2.30;;;0.60;;
13051;SDS011;6592;47.484;9.726;2024-02-26T10:23:55;2.10;;;0.70;;
13051;SDS011;6592;47.484;9.726;2024-02-26T10:26:24;2.22;;;0.60;;
13051;SDS011;6592;47.484;9.726;2024-02-26T10:28:52;6.82;;;1.75;;
13051;SDS011;6592;47.484;9.726;2024-02-26T10:31:21;4.35;;;1.88;;
13051;SDS011;6592;47.484;9.726;2024-02-26T10:33:49;7.15;;;2.03;;
13051;SDS011;6592;47.484;9.726;2024-02-26T10:36:23;5.70;;;1.77;;
13051;SDS011;6592;47.484;9.726;2024-02-26T10:39:13;6.80;;;2.17;;
13051;SDS011;6592;47.484;9.726;2024-02-26T10:41:42;3.85;;;1.75;;
13051;SDS011;6592;47.484;9.726;2024-02-26T10:44:12;3.67;;;1.70;;
13051;SDS011;6592;47.484;9.726;2024-02-26T10:46:44;3.20;;;1.45;;
13051;SDS011;6592;47.484;9.726;2024-02-26T10:49:15;4.55;;;1.70;;
13051;SDS011;6592;47.484;9.726;2024-02-26T10:51:51;3.40;;;1.70;;
13051;SDS011;6592;47.484;9.726;2024-02-26T10:54:23;4.82;;;1.80;;
13051;SDS011;6592;47.484;9.726;2024-02-26T10:56:54;4.80;;;1.90;;
13051;SDS011;6592;47.484;9.726;2024-02-26T10:59:24;4.43;;;1.70;;
13051;SDS011;6592;47.484;9.726;2024-02-26T11:01:53;3.47;;;1.80;;
13051;SDS011;6592;47.484;9.726;2024-02-26T11:04:22;4.35;;;1.98;;
13051;SDS011;6592;47.484;9.726;2024-02-26T11:09:24;4.10;;;1.98;;
13051;SDS011;6592;47.484;9.726;2024-02-26T11:11:54;4.45;;;2.20;;
13051;SDS011;6592;47.484;9.726;2024-02-26T11:14:24;6.57;;;2.30;;
13051;SDS011;6592;47.484;9.726;2024-02-26T11:16:54;3.45;;;1.70;;
13051;SDS011;6592;47.484;9.726;2024-02-26T11:19:24;4.85;;;2.05;;
13051;SDS011;6592;47.484;9.726;2024-02-26T11:21:55;6.15;;;2.03;;
13051;SDS011;6592;47.484;9.726;2024-02-26T11:24:28;4.30;;;2.17;;
13051;SDS011;6592;47.484;9.726;2024-02-26T11:26:58;3.38;;;1.90;;
13051;SDS011;6592;47.484;9.726;2024-02-26T11:29:32;5.22;;;1.95;;
13051;SDS011;6592;47.484;9.726;2024-02-26T11:32:06;4.93;;;1.95;;
13051;SDS011;6592;47.484;9.726;2024-02-26T11:34:34;4.88;;;1.70;;
13051;SDS011;6592;47.484;9.726;2024-02-26T11:37:10;3.70;;;1.92;;
13051;SDS011;6592;47.484;9.726;2024-02-26T11:39:40;5.05;;;2.53;;
13051;SDS011;6592;47.484;9.726;2024-02-26T11:42:09;4.80;;;2.35;;
13051;SDS011;6592;47.484;9.726;2024-02-26T11:44:37;5.72;;;2.55;;
13051;SDS011;6592;47.484;9.726;2024-02-26T11:47:12;4.45;;;1.95;;
13051;SDS011;6592;47.484;9.726;2024-02-26T11:49:40;4.72;;;2.38;;
13051;SDS011;6592;47.484;9.726;2024-02-26T11:52:10;5.22;;;2.60;;
13051;SDS011;6592;47.484;9.726;2024-02-26T11:54:43;4.90;;;2.20;;
13051;SDS011;6592;47.484;9.726;2024-02-26T11:57:22;4.57;;;2.15;;
13051;SDS011;6592;47.484;9.726;2024-02-26T11:59:52;4.43;;;2.10;;
13051;SDS011;6592;47.484;9.726;2024-02-26T12:05:09;4.72;;;2.35;;
13051;SDS011;6592;47.484;9.726;2024-02-26T12:07:42;4.78;;;2.35;;
13051;SDS011;6592;47.484;9.726;2024-02-26T12:10:17;5.00;;;2.55;;
13051;SDS011;6592;47.484;9.726;2024-02-26T12:12:58;5.75;;;2.42;;
13051;SDS011;6592;47.484;9.726;2024-02-26T12:15:31;3.80;;;2.13;;
13051;SDS011;6592;47.484;9.726;2024-02-26T12:18:04;5.30;;;2.22;;
13051;SDS011;6592;47.484;9.726;2024-02-26T12:20:34;5.63;;;2.30;;
13051;SDS011;6592;47.484;9.726;2024-02-26T12:23:04;6.22;;;2.20;;
13051;SDS011;6592;47.484;9.726;2024-02-26T12:25:33;6.32;;;2.80;;
13051;SDS011;6592;47.484;9.726;2024-02-26T12:28:01;6.13;;;3.05;;
13051;SDS011;6592;47.484;9.726;2024-02-26T12:30:30;6.75;;;2.78;;
13051;SDS011;6592;47.484;9.726;2024-02-26T12:32:59;4.80;;;2.35;;
13051;SDS011;6592;47.484;9.726;2024-02-26T12:35:28;4.78;;;2.60;;
13051;SDS011;6592;47.484;9.726;2024-02-26T12:37:58;7.47;;;2.55;;
13051;SDS011;6592;47.484;9.726;2024-02-26T12:40:28;7.80;;;2.30;;
13051;SDS011;6592;47.484;9.726;2024-02-26T12:42:56;3.58;;;1.92;;
13051;SDS011;6592;47.484;9.726;2024-02-26T12:45:25;6.38;;;2.13;;
13051;SDS011;6592;47.484;9.726;2024-02-26T12:47:55;5.15;;;2.05;;
13051;SDS011;6592;47.484;9.726;2024-02-26T12:50:23;5.07;;;2.13;;
13051;SDS011;6592;47.484;9.726;2024-02-26T12:52:52;3.72;;;1.92;;
13051;SDS011;6592;47.484;9.726;2024-02-26T12:55:21;3.60;;;1.90;;
13051;SDS011;6592;47.484;9.726;2024-02-26T12:57:50;6.55;;;2.30;;
13051;SDS011;6592;47.484;9.726;2024-02-26T13:00:22;5.50;;;2.70;;
13051;SDS011;6592;47.484;9.726;2024-02-26T13:02:52;8.80;;;3.10;;
13051;SDS011;6592;47.484;9.726;2024-02-26T13:05:22;7.47;;;2.65;;
13051;SDS011;6592;47.484;9.726;2024-02-26T13:07:51;8.13;;;2.40;;
13051;SDS011;6592;47.484;9.726;2024-02-26T13:10:19;4.18;;;1.60;;
13051;SDS011;6592;47.484;9.726;2024-02-26T13:12:48;6.28;;;2.60;;
13051;SDS011;6592;47.484;9.726;2024-02-26T13:15:19;2.67;;;1.40;;
13051;SDS011;6592;47.484;9.726;2024-02-26T13:17:48;3.78;;;1.08;;
13051;SDS011;6592;47.484;9.726;2024-02-26T13:20:25;4.20;;;1.00;;
13051;SDS011;6592;47.484;9.726;2024-02-26T13:23:01;2.63;;;0.90;;
13051;SDS011;6592;47.484;9.726;2024-02-26T13:25:29;4.28;;;1.20;;
13051;SDS011;6592;47.484;9.726;2024-02-26T13:28:07;2.97;;;1.00;;
13051;SDS011;6592;47.484;9.726;2024-02-26T13:30:36;2.25;;;0.88;;
13051;SDS011;6592;47.484;9.726;2024-02-26T13:33:08;2.22;;;1.00;;
13051;SDS011;6592;47.484;9.726;2024-02-26T13:35:37;2.13;;;0.82;;
13051;SDS011;6592;47.484;9.726;2024-02-26T13:38:06;4.10;;;1.13;;
13051;SDS011;6592;47.484;9.726;2024-02-26T13:40:35;2.92;;;1.20;;
13051;SDS011;6592;47.484;9.726;2024-02-26T13:43:03;2.33;;;1.10;;
13051;SDS011;6592;47.484;9.726;2024-02-26T13:45:34;4.90;;;1.40;;
13051;SDS011;6592;47.484;9.726;2024-02-26T13:48:05;3.53;;;1.20;;
13051;SDS011;6592;47.484;9.726;2024-02-26T13:50:36;3.85;;;1.17;;
13051;SDS011;6592;47.484;9.726;2024-02-26T13:53:05;4.30;;;1.45;;
13051;SDS011;6592;47.484;9.726;2024-02-26T13:55:33;3.00;;;1.40;;
13051;SDS011;6592;47.484;9.726;2024-02-26T13:58:02;2.85;;;1.30;;
13051;SDS011;6592;47.484;9.726;2024-02-26T14:00:31;3.35;;;1.33;;
13051;SDS011;6592;47.484;9.726;2024-02-26T14:03:02;3.08;;;1.20;;
13051;SDS011;6592;47.484;9.726;2024-02-26T14:05:31;2.47;;;1.00;;
13051;SDS011;6592;47.484;9.726;2024-02-26T14:07:59;2.75;;;1.10;;
13051;SDS011;6592;47.484;9.726;2024-02-26T14:10:28;3.92;;;1.50;;
13051;SDS011;6592;47.484;9.726;2024-02-26T14:12:56;4.47;;;1.45;;
13051;SDS011;6592;47.484;9.726;2024-02-26T14:15:25;3.90;;;1.10;;
13051;SDS011;6592;47.484;9.726;2024-02-26T14:17:55;3.58;;;1.15;;
13051;SDS011;6592;47.484;9.726;2024-02-26T14:20:25;4.18;;;1.73;;
13051;SDS011;6592;47.484;9.726;2024-02-26T14:22:53;3.10;;;1.05;;
13051;SDS011;6592;47.484;9.726;2024-02-26T14:25:22;3.70;;;1.50;;
13051;SDS011;6592;47.484;9.726;2024-02-26T14:27:54;3.03;;;1.10;;
13051;SDS011;6592;47.484;9.726;2024-02-26T14:30:23;2.92;;;1.25;;
13051;SDS011;6592;47.484;9.726;2024-02-26T14:32:52;2.97;;;1.40;;
13051;SDS011;6592;47.484;9.726;2024-02-26T14:35:21;3.28;;;1.20;;
13051;SDS011;6592;47.484;9.726;2024-02-26T14:37:51;3.95;;;1.23;;
13051;SDS011;6592;47.484;9.726;2024-02-26T14:40:20;8.98;;;3.35;;
13051;SDS011;6592;47.484;9.726;2024-02-26T14:42:48;4.60;;;1.83;;
13051;SDS011;6592;47.484;9.726;2024-02-26T14:45:17;3.65;;;1.20;;
13051;SDS011;6592;47.484;9.726;2024-02-26T14:47:45;3.28;;;1.50;;
13051;SDS011;6592;47.484;9.726;2024-02-26T14:50:14;2.45;;;0.93;;
13051;SDS011;6592;47.484;9.726;2024-02-26T14:52:42;4.40;;;1.33;;
13051;SDS011;6592;47.484;9.726;2024-02-26T14:55:12;4.88;;;1.40;;
13051;SDS011;6592;47.484;9.726;2024-02-26T14:57:40;4.72;;;1.38;;
13051;SDS011;6592;47.484;9.726;2024-02-26T15:00:09;2.72;;;1.15;;
13051;SDS011;6592;47.484;9.726;2024-02-26T15:02:38;4.65;;;1.35;;
13051;SDS011;6592;47.484;9.726;2024-02-26T15:05:06;3.47;;;1.27;;
13051;SDS011;6592;47.484;9.726;2024-02-26T15:07:37;3.97;;;1.50;;
13051;SDS011;6592;47.484;9.726;2024-02-26T15:10:07;4.65;;;1.50;;
13051;SDS011;6592;47.484;9.726;2024-02-26T15:12:37;6.20;;;1.67;;
13051;SDS011;6592;47.484;9.726;2024-02-26T15:15:06;4.38;;;1.85;;
13051;SDS011;6592;47.484;9.726;2024-02-26T15:17:35;5.18;;;1.48;;
13051;SDS011;6592;47.484;9.726;2024-02-26T15:20:04;4.43;;;1.35;;